createdAt,value
2023-03-10T00:01:24.732Z,1.84
2023-03-10T00:08:15.164Z,1.72
2023-03-10T00:10:46.931Z,1.63
2023-03-10T00:13:17.611Z,1.54
2023-03-10T00:15:46.129Z,1.46
2023-03-10T00:18:17.919Z,1.40
2023-03-10T00:20:46.379Z,1.36
2023-03-10T00:23:15.311Z,1.33
2023-03-10T00:25:44.184Z,1.29
2023-03-10T00:28:12.421Z,1.24
2023-03-10T00:30:41.603Z,1.22
2023-03-10T00:33:10.198Z,1.19
2023-03-10T00:35:39.468Z,1.16
2023-03-10T00:38:07.583Z,1.16
2023-03-10T00:40:36.254Z,1.14
2023-03-10T00:43:05.166Z,1.13
2023-03-10T00:45:35.669Z,1.13
2023-03-10T00:48:07.455Z,1.14
2023-03-10T00:50:36.176Z,1.14
2023-03-10T00:53:05.103Z,1.13
2023-03-10T00:55:33.484Z,1.10
2023-03-10T00:58:02.472Z,1.05
2023-03-10T01:00:31.027Z,1.03
2023-03-10T01:02:59.394Z,1.01
2023-03-10T01:05:31.577Z,0.99
2023-03-10T01:08:00.192Z,1.00
2023-03-10T01:10:28.416Z,1.02
2023-03-10T01:12:56.847Z,1.04
2023-03-10T01:15:25.804Z,1.04
2023-03-10T01:17:54.000Z,1.02
2023-03-10T01:20:22.323Z,0.99
2023-03-10T01:22:50.755Z,0.97
2023-03-10T01:25:19.013Z,0.97
2023-03-10T01:27:47.337Z,0.99
2023-03-10T01:30:15.722Z,0.99
2023-03-10T01:32:46.645Z,0.96
2023-03-10T01:35:15.790Z,0.90
2023-03-10T01:37:44.710Z,0.87
2023-03-10T01:40:16.552Z,0.87
2023-03-10T01:42:45.853Z,0.84
2023-03-10T01:45:17.064Z,0.81
2023-03-10T01:47:45.254Z,0.79
2023-03-10T01:50:16.429Z,0.77
2023-03-10T01:52:46.833Z,0.76
2023-03-10T01:55:16.770Z,0.72
2023-03-10T01:57:50.950Z,0.66
2023-03-10T02:00:20.242Z,0.63
2023-03-10T02:02:52.539Z,0.62
2023-03-10T02:05:21.681Z,0.59
2023-03-10T02:07:51.590Z,0.54
2023-03-10T02:10:22.305Z,0.50
2023-03-10T02:12:53.322Z,0.47
2023-03-10T02:15:22.551Z,0.45
2023-03-10T02:17:51.582Z,0.43
2023-03-10T02:20:40.263Z,0.40
2023-03-10T02:23:09.523Z,0.35
2023-03-10T02:25:45.343Z,0.31
2023-03-10T02:28:16.225Z,0.29
2023-03-10T02:30:50.416Z,0.28
2023-03-10T02:33:23.089Z,0.25
2023-03-10T02:35:51.838Z,0.23
2023-03-10T02:38:22.554Z,0.19
2023-03-10T02:40:52.137Z,0.15
2023-03-10T02:43:32.422Z,0.12
2023-03-10T02:46:07.066Z,0.11
2023-03-10T02:48:38.247Z,0.10
2023-03-10T02:51:23.936Z,0.10
2023-03-10T02:53:52.701Z,0.09
2023-03-10T02:56:21.287Z,0.08
2023-03-10T02:58:50.276Z,0.06
2023-03-10T03:01:18.926Z,0.05
2023-03-10T03:03:47.320Z,0.06
2023-03-10T03:06:15.986Z,0.05
2023-03-10T03:08:45.887Z,0.05
2023-03-10T03:11:16.594Z,0.04
2023-03-10T03:13:45.678Z,0.04
2023-03-10T03:16:14.713Z,0.03
2023-03-10T03:18:43.745Z,0.00
2023-03-10T03:21:17.413Z,-0.02
2023-03-10T03:23:46.967Z,-0.02
2023-03-10T03:26:18.828Z,-0.01
2023-03-10T03:28:49.332Z,-0.00
2023-03-10T03:31:22.126Z,0.02
2023-03-10T03:33:53.108Z,0.03
2023-03-10T03:36:22.523Z,0.01
2023-03-10T03:38:51.677Z,-0.01
2023-03-10T03:41:19.984Z,-0.01
2023-03-10T03:43:49.194Z,-0.01
2023-03-10T03:46:18.245Z,-0.03
2023-03-10T03:48:46.847Z,-0.02
2023-03-10T03:51:15.411Z,-0.02
2023-03-10T03:53:44.916Z,-0.01
2023-03-10T03:56:14.487Z,0.02
2023-03-10T03:58:44.997Z,0.03
2023-03-10T04:01:13.357Z,0.04
2023-03-10T04:03:45.670Z,0.07
2023-03-10T04:06:15.720Z,0.08
2023-03-10T04:08:44.661Z,0.07
2023-03-10T04:11:13.634Z,0.06
2023-03-10T04:13:46.263Z,0.04
2023-03-10T04:16:14.931Z,0.01
2023-03-10T04:18:45.101Z,-0.02
2023-03-10T04:21:17.669Z,-0.02
2023-03-10T04:23:46.762Z,-0.02
2023-03-10T04:26:20.351Z,-0.03
2023-03-10T04:28:49.267Z,-0.03
2023-03-10T04:31:18.522Z,-0.03
2023-03-10T04:33:50.224Z,-0.02
2023-03-10T04:36:19.289Z,0.00
2023-03-10T04:38:52.237Z,0.01
2023-03-10T04:41:21.644Z,0.02
2023-03-10T04:43:55.985Z,0.03
2023-03-10T04:46:24.654Z,0.03
2023-03-10T04:48:53.575Z,0.02
2023-03-10T04:51:21.777Z,0.02
2023-03-10T04:53:52.063Z,0.02
2023-03-10T04:56:20.570Z,0.02
2023-03-10T04:58:49.444Z,0.00
2023-03-10T05:01:17.765Z,-0.00
2023-03-10T05:03:52.269Z,-0.02
2023-03-10T05:06:21.552Z,-0.02
2023-03-10T05:09:05.066Z,-0.00
2023-03-10T05:11:34.271Z,0.01
2023-03-10T05:14:03.470Z,-0.01
2023-03-10T05:16:32.368Z,-0.03
2023-03-10T05:19:02.234Z,-0.05
2023-03-10T05:21:31.369Z,-0.06
2023-03-10T05:24:01.901Z,-0.04
2023-03-10T05:26:34.287Z,-0.02
2023-03-10T05:29:03.807Z,-0.04
2023-03-10T05:31:42.234Z,-0.02
2023-03-10T05:34:16.487Z,-0.01
2023-03-10T05:36:45.152Z,0.02
2023-03-10T05:39:13.575Z,0.04
2023-03-10T05:41:44.651Z,0.05
2023-03-10T05:44:13.163Z,0.06
2023-03-10T05:46:41.602Z,0.06
2023-03-10T05:49:09.881Z,0.07
2023-03-10T05:51:38.444Z,0.09
2023-03-10T05:54:07.643Z,0.12
2023-03-10T05:56:35.922Z,0.15
2023-03-10T05:59:07.085Z,0.15
2023-03-10T06:01:37.440Z,0.16
2023-03-10T06:04:05.732Z,0.20
2023-03-10T06:06:34.933Z,0.23
2023-03-10T06:09:03.586Z,0.28
2023-03-10T06:11:33.727Z,0.33
2023-03-10T06:14:02.064Z,0.35
2023-03-10T06:16:31.224Z,0.37
2023-03-10T06:19:00.244Z,0.40
2023-03-10T06:21:29.737Z,0.46
2023-03-10T06:23:59.387Z,0.49
2023-03-10T06:26:28.293Z,0.52
2023-03-10T06:28:56.492Z,0.53
2023-03-10T06:31:25.086Z,0.55
2023-03-10T06:33:53.779Z,0.59
2023-03-10T06:36:22.442Z,0.63
2023-03-10T06:38:50.648Z,0.68
2023-03-10T06:41:19.129Z,0.69
2023-03-10T06:43:47.844Z,0.71
2023-03-10T06:46:16.492Z,0.74
2023-03-10T06:48:45.678Z,0.77
2023-03-10T06:51:16.426Z,0.82
2023-03-10T06:53:45.120Z,0.87
2023-03-10T06:56:15.449Z,0.93
2023-03-10T06:58:49.832Z,0.98
2023-03-10T07:01:24.225Z,0.94
2023-03-10T07:03:53.446Z,0.90
2023-03-10T07:06:23.982Z,0.87
2023-03-10T07:09:12.110Z,0.88
2023-03-10T07:11:40.494Z,0.90
2023-03-10T07:14:08.758Z,0.95
2023-03-10T07:16:39.859Z,1.00
2023-03-10T07:19:08.479Z,1.02
2023-03-10T07:21:37.475Z,1.04
2023-03-10T07:24:06.450Z,1.09
2023-03-10T07:26:34.730Z,1.15
2023-03-10T07:29:04.588Z,1.21
2023-03-10T07:31:35.013Z,1.26
2023-03-10T07:34:05.163Z,1.24
2023-03-10T07:36:33.501Z,1.15
2023-03-10T07:39:02.856Z,1.15
2023-03-10T07:41:31.329Z,1.21
2023-03-10T07:43:59.579Z,1.25
2023-03-10T07:46:27.976Z,1.30
2023-03-10T07:48:58.607Z,1.32
2023-03-10T07:51:27.197Z,1.26
2023-03-10T07:53:58.587Z,1.24
2023-03-10T07:56:26.871Z,1.26
2023-03-10T07:58:55.238Z,1.29
2023-03-10T08:01:26.741Z,1.30
2023-03-10T08:03:57.932Z,1.31
2023-03-10T08:06:27.602Z,1.33
2023-03-10T08:09:00.782Z,1.35
2023-03-10T08:11:29.059Z,1.36
2023-03-10T08:13:57.967Z,1.38
2023-03-10T08:16:26.809Z,1.39
2023-03-10T08:18:55.290Z,1.39
2023-03-10T08:21:23.691Z,1.37
2023-03-10T08:23:54.586Z,1.34
2023-03-10T08:26:23.294Z,1.35
2023-03-10T08:28:51.847Z,1.37
2023-03-10T08:31:20.935Z,1.39
2023-03-10T08:33:50.829Z,1.43
2023-03-10T08:36:23.954Z,1.49
2023-03-10T08:38:52.889Z,1.55
2023-03-10T08:41:29.676Z,1.58
2023-03-10T08:43:58.592Z,1.62
2023-03-10T08:46:28.488Z,1.67
2023-03-10T08:48:56.946Z,1.69
2023-03-10T08:51:26.647Z,1.72
2023-03-10T08:53:55.050Z,1.79
2023-03-10T08:56:23.505Z,1.82
2023-03-10T08:58:56.812Z,1.87
2023-03-10T09:01:25.987Z,1.93
2023-03-10T09:03:54.300Z,1.98
2023-03-10T09:06:22.688Z,2.05
2023-03-10T09:08:51.401Z,2.11
2023-03-10T09:11:28.625Z,2.14
2023-03-10T09:13:57.322Z,2.12
2023-03-10T09:16:25.694Z,2.11
2023-03-10T09:18:53.935Z,2.12
2023-03-10T09:21:22.173Z,2.14
2023-03-10T09:23:50.769Z,2.15
2023-03-10T09:26:19.902Z,2.17
2023-03-10T09:28:51.206Z,2.23
2023-03-10T09:31:23.053Z,2.26
2023-03-10T09:33:52.657Z,2.31
2023-03-10T09:36:24.930Z,2.35
2023-03-10T09:38:53.258Z,2.39
2023-03-10T09:41:38.355Z,2.44
2023-03-10T09:44:43.378Z,2.56
2023-03-10T09:47:17.279Z,2.71
2023-03-10T09:50:12.247Z,2.74
2023-03-10T09:53:19.558Z,2.80
2023-03-10T09:55:49.006Z,2.90
2023-03-10T09:58:35.872Z,2.98
2023-03-10T10:01:04.550Z,2.95
2023-03-10T10:03:46.396Z,2.94
2023-03-10T10:06:32.645Z,2.91
2023-03-10T10:09:08.022Z,2.88
2023-03-10T10:11:39.350Z,2.87
2023-03-10T10:14:15.931Z,2.89
2023-03-10T10:17:05.055Z,2.93
2023-03-10T10:19:37.579Z,2.96
2023-03-10T10:22:29.272Z,2.96
2023-03-10T10:25:11.183Z,2.97
2023-03-10T10:27:41.945Z,3.04
2023-03-10T10:30:34.580Z,3.15
2023-03-10T10:33:13.695Z,3.23
2023-03-10T10:35:59.468Z,3.31
2023-03-10T10:38:29.560Z,3.41
2023-03-10T10:41:06.596Z,3.51
2023-03-10T10:43:43.773Z,3.59
2023-03-10T10:46:13.288Z,3.61
2023-03-10T10:48:43.446Z,3.57
2023-03-10T10:51:29.214Z,3.53
2023-03-10T10:54:29.084Z,3.54
2023-03-10T10:56:59.130Z,3.55
2023-03-10T10:59:32.415Z,3.60
2023-03-10T11:02:21.370Z,3.63
2023-03-10T11:04:49.622Z,3.66
2023-03-10T11:07:21.839Z,3.69
2023-03-10T11:09:50.093Z,3.70
2023-03-10T11:12:36.884Z,3.75
2023-03-10T11:15:22.241Z,3.81
2023-03-10T11:18:22.323Z,3.89
2023-03-10T11:21:16.750Z,3.97
2023-03-10T11:23:50.477Z,4.05
2023-03-10T11:26:57.687Z,4.12
2023-03-10T11:29:47.353Z,4.14
2023-03-10T11:32:19.462Z,4.19
2023-03-10T11:34:54.161Z,4.24
2023-03-10T11:37:35.681Z,4.27
2023-03-10T11:40:24.546Z,4.31
2023-03-10T11:42:55.991Z,4.35
2023-03-10T11:45:52.881Z,4.39
2023-03-10T11:48:44.545Z,4.41
2023-03-10T11:51:18.456Z,4.43
2023-03-10T11:53:57.249Z,4.46
2023-03-10T11:56:26.587Z,4.49
2023-03-10T11:59:06.057Z,4.52
2023-03-10T12:01:48.312Z,4.50
2023-03-10T12:04:16.635Z,4.47
2023-03-10T12:06:59.046Z,4.46
2023-03-10T12:09:38.024Z,4.45
2023-03-10T12:12:06.756Z,4.49
2023-03-10T12:14:35.121Z,4.56
2023-03-10T12:17:03.986Z,4.63
2023-03-10T12:19:32.353Z,4.68
2023-03-10T12:22:22.161Z,4.72
2023-03-10T12:24:50.950Z,4.77
2023-03-10T12:27:24.153Z,4.78
2023-03-10T12:29:52.307Z,4.80
2023-03-10T12:32:43.222Z,4.81
2023-03-10T12:35:41.476Z,4.85
2023-03-10T12:38:38.198Z,4.92
2023-03-10T12:41:06.417Z,5.00
2023-03-10T12:43:43.634Z,5.06
2023-03-10T12:46:12.655Z,5.09
2023-03-10T12:48:45.013Z,5.10
2023-03-10T12:51:17.505Z,5.14
2023-03-10T12:53:50.212Z,5.19
2023-03-10T12:56:20.522Z,5.24
2023-03-10T12:58:54.929Z,5.28
2023-03-10T13:01:23.830Z,5.34
2023-03-10T13:03:53.223Z,5.42
2023-03-10T13:06:36.036Z,5.51
2023-03-10T13:09:10.918Z,5.61
2023-03-10T13:11:45.332Z,5.74
2023-03-10T13:14:16.471Z,5.87
2023-03-10T13:17:00.836Z,5.96
2023-03-10T13:19:30.856Z,6.03
2023-03-10T13:21:59.598Z,6.07
2023-03-10T13:24:29.459Z,6.11
2023-03-10T13:27:06.907Z,6.14
2023-03-10T13:29:35.226Z,6.12
2023-03-10T13:32:03.592Z,6.10
2023-03-10T13:34:32.750Z,6.06
2023-03-10T13:37:08.551Z,6.02
2023-03-10T13:39:38.721Z,6.00
2023-03-10T13:42:19.505Z,5.98
2023-03-10T13:44:47.786Z,5.93
2023-03-10T13:47:20.674Z,5.88
2023-03-10T13:49:53.710Z,5.86
2023-03-10T13:52:26.961Z,5.87
2023-03-10T13:55:14.518Z,5.90
2023-03-10T13:57:43.251Z,5.91
2023-03-10T14:00:16.059Z,5.91
2023-03-10T14:02:45.374Z,5.91
2023-03-10T14:05:46.354Z,5.93
2023-03-10T14:08:28.884Z,5.96
2023-03-10T14:11:22.576Z,5.99
2023-03-10T14:13:51.823Z,6.01
2023-03-10T14:16:20.001Z,6.03
2023-03-10T14:18:51.239Z,6.06
2023-03-10T14:21:32.866Z,6.07
2023-03-10T14:24:10.998Z,6.08
2023-03-10T14:26:41.664Z,6.06
2023-03-10T14:29:14.806Z,6.04
2023-03-10T14:31:43.314Z,6.02
2023-03-10T14:34:13.475Z,5.96
2023-03-10T14:36:42.147Z,5.92
2023-03-10T14:39:12.903Z,5.89
2023-03-10T14:41:42.400Z,5.87
2023-03-10T14:44:11.650Z,5.85
2023-03-10T14:46:40.171Z,5.84
2023-03-10T14:49:08.568Z,5.82
2023-03-10T14:51:38.416Z,5.83
2023-03-10T14:54:18.173Z,5.85
2023-03-10T14:56:46.554Z,5.85
2023-03-10T14:59:15.301Z,5.86
2023-03-10T15:01:43.651Z,5.87
2023-03-10T15:04:20.817Z,5.89
2023-03-10T15:06:49.169Z,5.91
2023-03-10T15:09:20.025Z,5.90
2023-03-10T15:11:48.590Z,5.87
2023-03-10T15:14:18.536Z,5.82
2023-03-10T15:16:49.315Z,5.77
2023-03-10T15:19:24.947Z,5.74
2023-03-10T15:21:53.774Z,5.71
2023-03-10T15:24:21.924Z,5.68
2023-03-10T15:26:50.733Z,5.65
2023-03-10T15:29:23.625Z,5.63
2023-03-10T15:31:52.823Z,5.61
2023-03-10T15:34:21.002Z,5.57
2023-03-10T15:36:51.521Z,5.54
2023-03-10T15:39:30.974Z,5.51
2023-03-10T15:42:00.253Z,5.48
2023-03-10T15:44:29.512Z,5.45
2023-03-10T15:47:00.262Z,5.43
2023-03-10T15:49:30.109Z,5.41
2023-03-10T15:51:58.406Z,5.39
2023-03-10T15:54:26.595Z,5.37
2023-03-10T15:56:55.283Z,5.35
2023-03-10T15:59:28.104Z,5.34
2023-03-10T16:01:57.318Z,5.32
2023-03-10T16:04:25.588Z,5.30
2023-03-10T16:06:54.939Z,5.29
2023-03-10T16:09:23.402Z,5.26
2023-03-10T16:11:52.257Z,5.23
2023-03-10T16:14:26.405Z,5.20
2023-03-10T16:16:55.144Z,5.19
2023-03-10T16:19:23.451Z,5.18
2023-03-10T16:21:54.063Z,5.16
2023-03-10T16:24:22.463Z,5.15
2023-03-10T16:26:50.571Z,5.15
2023-03-10T16:29:20.053Z,5.14
2023-03-10T16:31:48.477Z,5.13
2023-03-10T16:34:18.666Z,5.12
2023-03-10T16:36:50.141Z,5.12
2023-03-10T16:39:18.447Z,5.11
2023-03-10T16:41:49.887Z,5.10
2023-03-10T16:44:18.443Z,5.09
2023-03-10T16:46:47.026Z,5.07
2023-03-10T16:49:16.035Z,5.06
2023-03-10T16:51:45.147Z,5.06
2023-03-10T16:54:19.564Z,5.05
2023-03-10T16:56:52.329Z,5.04
2023-03-10T16:59:21.940Z,5.03
2023-03-10T17:01:50.758Z,5.00
2023-03-10T17:04:19.347Z,4.97
2023-03-10T17:06:49.013Z,4.96
2023-03-10T17:09:18.409Z,4.94
2023-03-10T17:11:55.790Z,4.93
2023-03-10T17:14:24.308Z,4.91
2023-03-10T17:16:54.107Z,4.87
2023-03-10T17:19:28.847Z,4.85
2023-03-10T17:21:57.506Z,4.81
2023-03-10T17:24:27.371Z,4.79
2023-03-10T17:26:57.021Z,4.77
2023-03-10T17:29:25.649Z,4.75
2023-03-10T17:31:59.446Z,4.72
2023-03-10T17:34:29.554Z,4.71
2023-03-10T17:36:57.774Z,4.71
2023-03-10T17:39:27.865Z,4.68
2023-03-10T17:41:56.308Z,4.65
2023-03-10T17:44:27.479Z,4.64
2023-03-10T17:46:58.794Z,4.63
2023-03-10T17:49:27.716Z,4.61
2023-03-10T17:51:55.942Z,4.60
2023-03-10T17:54:24.648Z,4.59
2023-03-10T17:56:54.258Z,4.58
2023-03-10T17:59:22.398Z,4.57
2023-03-10T18:01:51.599Z,4.57
2023-03-10T18:04:19.970Z,4.56
2023-03-10T18:06:48.965Z,4.56
2023-03-10T18:09:37.171Z,4.57
2023-03-10T18:12:05.645Z,4.58
2023-03-10T18:14:34.612Z,4.58
2023-03-10T18:17:03.255Z,4.59
2023-03-10T18:19:31.983Z,4.60
2023-03-10T18:22:08.252Z,4.62
2023-03-10T18:24:43.114Z,4.63
2023-03-10T18:27:12.115Z,4.65
2023-03-10T18:29:41.505Z,4.66
2023-03-10T18:32:09.682Z,4.66
2023-03-10T18:34:39.413Z,4.66
2023-03-10T18:37:07.784Z,4.66
2023-03-10T18:39:36.580Z,4.66
2023-03-10T18:42:05.448Z,4.65
2023-03-10T18:44:39.216Z,4.65
2023-03-10T18:47:08.009Z,4.64
2023-03-10T18:49:36.527Z,4.63
2023-03-10T18:52:04.927Z,4.61
2023-03-10T18:54:33.240Z,4.58
2023-03-10T18:57:01.869Z,4.56
2023-03-10T18:59:30.356Z,4.54
2023-03-10T19:01:59.406Z,4.52
2023-03-10T19:04:27.875Z,4.49
2023-03-10T19:06:56.084Z,4.45
2023-03-10T19:09:29.542Z,4.40
2023-03-10T19:12:02.148Z,4.37
2023-03-10T19:14:31.963Z,4.35
2023-03-10T19:17:00.362Z,4.32
2023-03-10T19:19:31.821Z,4.28
2023-03-10T19:22:00.494Z,4.25
2023-03-10T19:24:29.400Z,4.21
2023-03-10T19:26:57.760Z,4.16
2023-03-10T19:29:26.239Z,4.11
2023-03-10T19:31:56.194Z,4.08
2023-03-10T19:34:25.933Z,4.05
2023-03-10T19:36:54.018Z,4.03
2023-03-10T19:39:23.997Z,4.02
2023-03-10T19:41:52.182Z,4.00
2023-03-10T19:44:22.006Z,4.00
2023-03-10T19:46:50.885Z,4.01
2023-03-10T19:49:20.285Z,4.00
2023-03-10T19:51:48.546Z,3.97
2023-03-10T19:54:16.957Z,3.93
2023-03-10T19:56:45.216Z,3.91
2023-03-10T19:59:13.544Z,3.90
2023-03-10T20:01:48.892Z,3.88
2023-03-10T20:04:17.793Z,3.88
2023-03-10T20:06:46.279Z,3.87
2023-03-10T20:09:19.156Z,3.86
2023-03-10T20:11:47.695Z,3.83
2023-03-10T20:14:15.820Z,3.82
2023-03-10T20:16:45.397Z,3.82
2023-03-10T20:19:14.767Z,3.80
2023-03-10T20:21:43.055Z,3.80
2023-03-10T20:24:11.499Z,3.79
2023-03-10T20:26:39.760Z,3.77
2023-03-10T20:29:11.623Z,3.75
2023-03-10T20:31:40.852Z,3.73
2023-03-10T20:34:15.564Z,3.70
2023-03-10T20:36:43.942Z,3.69
2023-03-10T20:39:12.617Z,3.70
2023-03-10T20:41:42.704Z,3.68
2023-03-10T20:44:14.341Z,3.66
2023-03-10T20:46:45.949Z,3.65
2023-03-10T20:49:14.382Z,3.65
2023-03-10T20:51:42.512Z,3.63
2023-03-10T20:54:10.857Z,3.61
2023-03-10T20:56:41.697Z,3.59
2023-03-10T20:59:13.728Z,3.57
2023-03-10T21:01:42.686Z,3.54
2023-03-10T21:04:10.924Z,3.52
2023-03-10T21:06:39.190Z,3.49
2023-03-10T21:09:07.479Z,3.47
2023-03-10T21:11:37.503Z,3.46
2023-03-10T21:14:06.501Z,3.45
2023-03-10T21:16:38.803Z,3.45
2023-03-10T21:19:13.322Z,3.43
2023-03-10T21:21:42.756Z,3.41
2023-03-10T21:24:11.074Z,3.41
2023-03-10T21:26:39.362Z,3.40
2023-03-10T21:29:07.659Z,3.38
2023-03-10T21:31:41.088Z,3.37
2023-03-10T21:34:09.472Z,3.36
2023-03-10T21:36:37.912Z,3.36
2023-03-10T21:39:09.264Z,3.36
2023-03-10T21:41:37.887Z,3.37
2023-03-10T21:44:07.637Z,3.38
2023-03-10T21:46:36.986Z,3.39
2023-03-10T21:49:06.129Z,3.40
2023-03-10T21:51:35.166Z,3.41
2023-03-10T21:54:03.944Z,3.43
2023-03-10T21:56:34.239Z,3.44
2023-03-10T21:59:02.547Z,3.45
2023-03-10T22:01:35.895Z,3.45
2023-03-10T22:04:05.049Z,3.47
2023-03-10T22:06:33.231Z,3.46
2023-03-10T22:09:01.452Z,3.47
2023-03-10T22:11:30.242Z,3.49
2023-03-10T22:13:59.691Z,3.48
2023-03-10T22:16:27.893Z,3.48
2023-03-10T22:18:57.074Z,3.50
2023-03-10T22:21:25.856Z,3.51
2023-03-10T22:23:54.113Z,3.53
2023-03-10T22:26:22.564Z,3.56
2023-03-10T22:28:50.732Z,3.57
2023-03-10T22:31:19.433Z,3.58
2023-03-10T22:33:47.828Z,3.60
2023-03-10T22:36:16.034Z,3.61
2023-03-10T22:38:48.561Z,3.63
2023-03-10T22:41:16.753Z,3.66
2023-03-10T22:43:47.508Z,3.68
2023-03-10T22:46:16.559Z,3.70
2023-03-10T22:48:44.718Z,3.72
2023-03-10T22:51:14.980Z,3.74
2023-03-10T22:53:43.156Z,3.77
2023-03-10T22:56:11.492Z,3.79
2023-03-10T22:58:39.749Z,3.82
2023-03-10T23:01:08.025Z,3.84
2023-03-10T23:03:36.342Z,3.87
2023-03-10T23:06:07.837Z,3.90
2023-03-10T23:08:40.017Z,3.95
2023-03-10T23:11:10.683Z,4.00
2023-03-10T23:13:40.564Z,4.04
2023-03-10T23:16:13.165Z,4.08
2023-03-10T23:18:41.963Z,4.12
2023-03-10T23:21:10.327Z,4.16
2023-03-10T23:23:40.051Z,4.20
2023-03-10T23:26:08.221Z,4.24
2023-03-10T23:28:36.989Z,4.26
2023-03-10T23:31:06.298Z,4.29
2023-03-10T23:33:34.913Z,4.31
2023-03-10T23:36:03.696Z,4.33
2023-03-10T23:38:31.908Z,4.34
2023-03-10T23:41:00.350Z,4.35
2023-03-10T23:43:33.201Z,4.35
2023-03-10T23:46:05.577Z,4.35
2023-03-10T23:48:34.056Z,4.34
2023-03-10T23:51:05.516Z,4.34
2023-03-10T23:53:34.097Z,4.33
2023-03-10T23:56:02.320Z,4.33
2023-03-10T23:58:31.144Z,4.33
